Time;durP1;ratioP1;P1;durP2;ratioP2;P2;SDS_P1;SDS_P2;PMS_P1;PMS_P2;Temp;Humidity;BMP_temperature;BMP_pressure;BME280_temperature;BME280_humidity;BME280_pressure;Samples;Min_cycle;Max_cycle;Signal;HPM_P1;HPM_P2
2022/02/21 00:02:11;;;;;;;24.27;3.13;;;;;;;5.79;79.25;99568.94;6017693;23;20004;-79
2022/02/21 00:04:37;;;;;;;26.67;2.85;;;;;;;5.78;78.85;99577.97;6022001;23;20012;-80
2022/02/21 00:07:03;;;;;;;39.00;4.65;;;;;;;5.78;77.92;99561.94;6033156;23;20008;-80
2022/02/21 00:09:29;;;;;;;31.88;3.95;;;;;;;5.76;76.74;99585.31;6031672;23;20441;-81
2022/02/21 00:11:54;;;;;;;22.17;3.17;;;;;;;5.71;77.48;99587.69;6033301;23;20000;-80
2022/02/21 00:14:19;;;;;;;32.92;3.55;;;;;;;5.64;76.08;99598.28;6032201;23;20082;-79
2022/02/21 00:16:45;;;;;;;26.60;2.92;;;;;;;5.61;76.91;99597.78;6023586;23;20007;-80
2022/02/21 00:19:10;;;;;;;31.60;2.95;;;;;;;5.56;76.42;99613.53;6000493;23;20012;-80
2022/02/21 00:21:35;;;;;;;37.90;3.33;;;;;;;5.55;77.36;99619.88;6022627;23;20012;-81
2022/02/21 00:24:01;;;;;;;24.02;3.10;;;;;;;5.53;77.60;99597.88;6030589;23;19988;-80
2022/02/21 00:26:26;;;;;;;34.60;4.10;;;;;;;5.53;78.45;99630.75;6033674;23;20008;-79
2022/02/21 00:28:51;;;;;;;35.05;3.20;;;;;;;5.55;79.94;99630.53;6032705;23;20015;-79
2022/02/21 00:31:17;;;;;;;22.73;3.13;;;;;;;5.55;78.92;99642.03;6033136;23;19996;-82
2022/02/21 00:33:42;;;;;;;23.55;3.10;;;;;;;5.53;77.77;99656.56;6034894;23;20005;-80
2022/02/21 00:36:08;;;;;;;21.98;3.00;;;;;;;5.52;76.11;99641.59;6035952;23;20055;-80
2022/02/21 00:38:33;;;;;;;24.92;2.85;;;;;;;5.52;75.55;99642.41;6035093;23;20020;-80
2022/02/21 00:40:59;;;;;;;24.58;3.42;;;;;;;5.52;74.38;99661.09;6023239;23;20071;-82
2022/02/21 00:43:24;;;;;;;20.30;3.13;;;;;;;5.50;75.09;99660.44;6020051;23;20051;-80
2022/02/21 00:45:50;;;;;;;30.55;3.03;;;;;;;5.56;74.86;99664.25;6001613;23;20004;-80
2022/02/21 00:48:16;;;;;;;22.08;2.97;;;;;;;5.47;75.32;99666.94;6022128;23;20011;-80
2022/02/21 00:50:41;;;;;;;32.60;3.33;;;;;;;5.50;75.93;99663.97;6022810;23;20011;-79
2022/02/21 00:53:06;;;;;;;31.23;3.17;;;;;;;5.49;76.45;99678.28;6021344;23;20386;-80
2022/02/21 00:55:34;;;;;;;20.58;2.75;;;;;;;5.53;73.86;99653.91;6020867;23;20008;-82
2022/02/21 00:58:00;;;;;;;30.50;2.80;;;;;;;5.54;73.26;99671.59;6026084;23;20027;-79
2022/02/21 01:00:25;;;;;;;30.35;3.10;;;;;;;5.49;71.94;99654.28;6027235;23;20007;-81
2022/02/21 01:02:50;;;;;;;27.42;2.85;;;;;;;5.48;71.27;99689.97;6020329;23;20012;-81
2022/02/21 01:05:16;;;;;;;29.00;2.88;;;;;;;5.44;71.20;99682.50;5997773;23;20012;-81
2022/02/21 01:07:41;;;;;;;38.55;3.92;;;;;;;5.43;71.96;99691.53;5995974;23;20019;-80
2022/02/21 01:10:07;;;;;;;29.85;3.08;;;;;;;5.44;71.93;99699.34;6020239;23;20034;-82
2022/02/21 01:12:33;;;;;;;30.60;3.38;;;;;;;5.46;71.90;99697.31;6015706;23;20004;-80
2022/02/21 01:14:58;;;;;;;22.60;3.50;;;;;;;5.46;71.25;99697.31;6017068;23;20063;-80
2022/02/21 01:17:24;;;;;;;26.02;3.42;;;;;;;5.54;72.28;99700.97;5990486;23;20015;-81
2022/02/21 01:19:50;;;;;;;33.22;4.13;;;;;;;5.50;73.49;99711.13;5988952;23;20008;-81
2022/02/21 01:22:15;;;;;;;27.45;2.92;;;;;;;5.50;74.14;99708.47;6014973;23;20004;-81
2022/02/21 01:24:41;;;;;;;44.20;4.03;;;;;;;5.44;73.40;99699.34;6022019;23;20042;-80
2022/02/21 01:27:06;;;;;;;22.02;2.83;;;;;;;5.42;72.70;99701.34;6025420;23;20031;-78
2022/02/21 01:29:31;;;;;;;32.03;3.22;;;;;;;5.41;71.95;99715.69;5995800;23;20067;-80
2022/02/21 01:31:57;;;;;;;20.67;3.00;;;;;;;5.38;71.89;99716.06;6017707;23;20052;-79
2022/02/21 01:34:22;;;;;;;26.85;3.70;;;;;;;5.40;71.68;99716.72;6019881;23;20007;-78
2022/02/21 01:36:48;;;;;;;29.83;3.17;;;;;;;5.35;70.80;99721.75;6023258;23;20063;-80
2022/02/21 01:39:13;;;;;;;25.80;3.35;;;;;;;5.35;71.39;99710.25;6020014;23;20000;-78
2022/02/21 01:41:39;;;;;;;26.67;2.95;;;;;;;5.32;70.42;99714.09;6026557;23;20011;-77
2022/02/21 01:44:12;;;;;;;20.40;3.10;;;;;;;5.27;69.64;99709.28;6023550;23;20444;-80
2022/02/21 01:46:38;;;;;;;23.05;2.55;;;;;;;5.30;69.06;99717.94;6020261;23;20007;-79
2022/02/21 01:49:05;;;;;;;29.85;3.13;;;;;;;5.27;69.12;99737.81;6015979;23;20044;-78
2022/02/21 01:51:32;;;;;;;26.48;2.65;;;;;;;5.31;67.81;99735.59;5994582;23;20012;-79
2022/02/21 01:53:57;;;;;;;23.73;3.03;;;;;;;5.31;66.65;99720.44;6020950;23;20055;-79
2022/02/21 01:56:24;;;;;;;24.95;3.40;;;;;;;5.29;67.66;99730.44;6018198;23;20342;-77
2022/02/21 01:58:49;;;;;;;23.02;3.05;;;;;;;5.31;66.92;99743.63;6017269;23;20012;-78
2022/02/21 02:01:14;;;;;;;19.55;3.28;;;;;;;5.36;67.53;99734.06;6015969;23;20026;-78
2022/02/21 02:03:40;;;;;;;18.17;2.85;;;;;;;5.37;66.20;99717.06;6017842;23;20156;-79
2022/02/21 02:06:06;;;;;;;22.52;3.38;;;;;;;5.41;66.12;99720.22;6015320;23;20338;-78
2022/02/21 02:08:32;;;;;;;31.83;2.85;;;;;;;5.41;66.67;99730.88;6015816;23;20063;-79
2022/02/21 02:10:58;;;;;;;26.08;3.45;;;;;;;5.40;66.35;99722.06;6013918;23;20039;-80
2022/02/21 02:13:23;;;;;;;34.78;2.70;;;;;;;5.43;66.80;99729.72;6014711;23;20032;-78
2022/02/21 02:15:53;;;;;;;37.47;3.85;;;;;;;5.44;67.06;99736.69;6014301;23;20063;-79
2022/02/21 02:18:19;;;;;;;26.17;2.92;;;;;;;5.48;66.93;99753.19;5988141;23;20004;-79
2022/02/21 02:20:44;;;;;;;17.15;3.00;;;;;;;5.40;66.35;99724.72;6021098;23;20036;-78
2022/02/21 02:23:09;;;;;;;23.80;2.53;;;;;;;5.42;65.21;99721.88;6022976;23;20027;-78
2022/02/21 02:25:35;;;;;;;21.83;3.22;;;;;;;5.39;65.34;99733.72;6018233;23;20067;-80
2022/02/21 02:28:00;;;;;;;23.05;3.00;;;;;;;5.41;64.95;99747.72;6015396;23;20018;-78
2022/02/21 02:30:26;;;;;;;25.05;2.85;;;;;;;5.43;65.76;99756.38;6015433;23;20011;-81
2022/02/21 02:32:54;;;;;;;22.63;3.30;;;;;;;5.41;65.61;99753.06;6012958;23;20007;-80
2022/02/21 02:35:20;;;;;;;26.92;2.90;;;;;;;5.38;65.17;99749.91;5986765;23;20008;-79
2022/02/21 02:37:45;;;;;;;18.90;3.00;;;;;;;5.37;64.80;99741.09;6015823;23;20093;-80
2022/02/21 02:40:11;;;;;;;22.77;3.50;;;;;;;5.36;66.17;99733.25;6019165;23;20019;-79
2022/02/21 02:42:36;;;;;;;28.40;3.85;;;;;;;5.32;66.78;99758.59;6021517;23;20500;-80
2022/02/21 02:45:02;;;;;;;40.83;3.97;;;;;;;5.34;66.65;99770.75;6023500;23;20051;-80
2022/02/21 02:47:27;;;;;;;31.77;3.75;;;;;;;5.33;66.49;99777.13;6024068;23;20008;-80
2022/02/21 02:49:52;;;;;;;32.20;3.67;;;;;;;5.34;65.77;99762.75;6022635;23;20315;-79
2022/02/21 02:52:18;;;;;;;20.13;3.10;;;;;;;5.30;65.57;99748.13;6019129;23;20440;-80
2022/02/21 02:54:43;;;;;;;39.65;4.90;;;;;;;5.30;67.18;99761.47;6011776;23;20037;-80
2022/02/21 02:57:08;;;;;;;35.00;3.25;;;;;;;5.29;67.14;99759.78;5988438;23;20004;-79
2022/02/21 02:59:34;;;;;;;29.50;3.95;;;;;;;5.23;67.95;99765.81;6013178;23;20067;-78
2022/02/21 03:01:59;;;;;;;30.52;4.15;;;;;;;5.25;67.31;99761.16;6014901;23;20056;-79
2022/02/21 03:04:24;;;;;;;33.10;3.50;;;;;;;5.22;66.99;99780.19;5989137;23;20067;-79
2022/02/21 03:06:50;;;;;;;35.60;3.78;;;;;;;5.24;65.65;99778.19;6016286;23;20004;-78
2022/02/21 03:09:15;;;;;;;31.75;3.63;;;;;;;5.23;67.27;99774.66;6014043;23;20382;-78
2022/02/21 03:11:40;;;;;;;28.00;3.47;;;;;;;5.18;67.66;99768.19;5989930;23;20011;-78
2022/02/21 03:14:06;;;;;;;29.58;3.78;;;;;;;5.20;67.35;99760.84;6002826;23;20015;-80
2022/02/21 03:16:31;;;;;;;36.35;3.65;;;;;;;5.21;67.78;99754.50;6027488;23;20015;-78
2022/02/21 03:18:57;;;;;;;32.60;3.97;;;;;;;5.19;66.60;99785.88;6027249;23;20007;-79
2022/02/21 03:21:22;;;;;;;22.08;3.15;;;;;;;5.14;64.25;99780.22;6028116;23;20390;-80
2022/02/21 03:23:48;;;;;;;28.15;3.28;;;;;;;5.10;64.34;99760.22;6027274;23;20011;-79
2022/02/21 03:26:14;;;;;;;18.60;3.10;;;;;;;5.04;64.35;99759.91;6003398;23;20079;-79
2022/02/21 03:28:39;;;;;;;31.30;3.95;;;;;;;5.03;64.29;99752.91;6027702;23;20048;-78
2022/02/21 03:31:04;;;;;;;23.00;2.78;;;;;;;5.01;65.02;99752.25;6031668;23;20007;-79
2022/02/21 03:33:30;;;;;;;25.08;2.88;;;;;;;5.03;63.44;99768.91;6026264;23;20008;-78
2022/02/21 03:35:55;;;;;;;27.17;2.83;;;;;;;5.05;63.30;99769.59;5993408;23;20004;-78
2022/02/21 03:38:21;;;;;;;23.40;3.83;;;;;;;5.06;63.73;99752.56;6019943;23;20442;-78
2022/02/21 03:40:47;;;;;;;25.05;2.90;;;;;;;5.10;64.81;99757.53;5994222;23;20004;-78
2022/02/21 03:43:13;;;;;;;26.00;3.03;;;;;;;5.07;65.11;99756.88;6020641;23;20060;-78
2022/02/21 03:45:38;;;;;;;29.23;3.03;;;;;;;5.02;63.38;99747.75;6023581;23;20020;-79
2022/02/21 03:48:04;;;;;;;21.88;2.85;;;;;;;5.05;64.28;99766.91;6020406;23;20033;-78
2022/02/21 03:50:29;;;;;;;25.60;3.40;;;;;;;5.06;65.19;99771.22;6021902;23;20024;-77
2022/02/21 03:52:55;;;;;;;26.63;3.85;;;;;;;5.04;65.10;99757.22;6026907;23;20027;-78
2022/02/21 03:55:20;;;;;;;19.55;3.25;;;;;;;5.04;66.16;99757.22;6019741;23;20011;-78
2022/02/21 03:57:46;;;;;;;25.83;3.25;;;;;;;5.03;67.28;99754.75;6023934;23;20449;-79
2022/02/21 04:00:13;;;;;;;25.50;3.10;;;;;;;4.93;66.79;99757.63;6028559;23;20082;-80
2022/02/21 04:02:39;;;;;;;26.33;3.15;;;;;;;4.90;66.44;99749.97;6027689;23;20008;-79
2022/02/21 04:05:05;;;;;;;23.45;2.83;;;;;;;4.91;66.14;99756.13;6021821;23;20015;-79
2022/02/21 04:07:31;;;;;;;33.65;3.67;;;;;;;4.89;67.34;99766.94;6029227;23;20368;-77
2022/02/21 04:09:57;;;;;;;26.40;3.58;;;;;;;4.86;66.70;99775.28;6035581;23;20056;-76
2022/02/21 04:12:23;;;;;;;19.38;3.60;;;;;;;4.87;66.07;99763.66;6026933;23;20015;-78
2022/02/21 04:14:48;;;;;;;28.98;3.13;;;;;;;4.89;66.51;99764.28;6015521;23;20004;-79
2022/02/21 04:17:13;;;;;;;28.95;2.95;;;;;;;4.90;65.47;99747.31;6015665;23;20227;-80
2022/02/21 04:19:39;;;;;;;21.23;2.13;;;;;;;4.91;64.31;99754.28;6016469;23;20038;-80
2022/02/21 04:22:09;;;;;;;28.88;3.00;;;;;;;4.98;66.02;99765.09;6014694;23;20334;-78
2022/02/21 04:24:34;;;;;;;23.33;3.13;;;;;;;4.91;67.01;99762.28;6015513;23;20039;-80
2022/02/21 04:27:00;;;;;;;21.88;2.58;;;;;;;4.97;67.11;99777.59;6014883;23;20004;-80
2022/02/21 04:29:25;;;;;;;36.97;3.85;;;;;;;4.95;68.30;99760.94;6015225;23;20449;-78
2022/02/21 04:31:50;;;;;;;23.27;2.88;;;;;;;4.94;69.34;99772.59;6013554;23;20091;-79
2022/02/21 04:34:15;;;;;;;29.40;3.88;;;;;;;4.95;68.74;99784.94;6013971;23;20007;-77
2022/02/21 04:36:41;;;;;;;38.80;3.70;;;;;;;4.95;69.47;99790.28;6014237;23;20019;-79
2022/02/21 04:39:06;;;;;;;22.67;2.92;;;;;;;4.93;69.67;99786.13;6014815;23;20008;-79
2022/02/21 04:41:31;;;;;;;27.23;3.15;;;;;;;4.97;69.70;99760.75;6021589;23;20010;-76
2022/02/21 04:43:57;;;;;;;33.65;3.75;;;;;;;4.97;70.49;99766.91;5992719;23;20011;-78
2022/02/21 04:46:22;;;;;;;32.08;3.55;;;;;;;4.97;70.98;99766.91;5995766;23;20018;-79
2022/02/21 04:48:47;;;;;;;33.35;3.88;;;;;;;4.92;69.95;99747.94;6020007;23;19999;-78
2022/02/21 04:51:13;;;;;;;34.30;3.90;;;;;;;4.84;69.24;99751.50;6018715;23;20553;-78
2022/02/21 04:53:38;;;;;;;31.17;3.35;;;;;;;4.77;68.74;99760.34;6019988;23;20055;-78
2022/02/21 04:56:04;;;;;;;37.25;3.60;;;;;;;4.75;69.04;99730.34;6018124;23;20004;-78
2022/02/21 04:58:29;;;;;;;22.08;2.60;;;;;;;4.75;68.99;99730.34;6016937;23;20014;-78
2022/02/21 05:00:55;;;;;;;25.27;4.35;;;;;;;4.74;68.84;99720.66;6015024;23;20454;-77
2022/02/21 05:03:20;;;;;;;25.17;3.03;;;;;;;4.74;67.63;99728.66;6022405;23;20019;-76
2022/02/21 05:05:45;;;;;;;26.77;3.65;;;;;;;4.71;68.25;99715.69;6015886;23;20315;-75
2022/02/21 05:08:11;;;;;;;37.45;3.53;;;;;;;4.71;68.33;99713.03;5989607;23;20011;-80
2022/02/21 05:10:36;;;;;;;37.53;3.70;;;;;;;4.69;68.91;99731.03;6012629;23;20064;-80
2022/02/21 05:13:01;;;;;;;29.25;4.45;;;;;;;4.66;69.11;99732.22;6012367;23;20430;-80
2022/02/21 05:15:27;;;;;;;24.63;2.97;;;;;;;4.64;69.14;99685.41;6012669;23;20015;-80
2022/02/21 05:17:52;;;;;;;23.77;3.00;;;;;;;4.60;68.35;99696.41;6012388;23;20007;-79
2022/02/21 05:20:17;;;;;;;35.40;3.47;;;;;;;4.63;68.38;99716.53;6012633;23;20011;-80
2022/02/21 05:22:43;;;;;;;27.10;3.35;;;;;;;4.59;68.43;99697.41;5991646;23;20004;-80
2022/02/21 05:25:08;;;;;;;32.20;3.75;;;;;;;4.64;66.96;99659.59;6012888;23;20047;-81
2022/02/21 05:27:37;;;;;;;18.65;2.55;;;;;;;4.70;67.08;99714.88;6012340;23;20012;-80
2022/02/21 05:30:04;;;;;;;22.42;3.25;;;;;;;4.71;67.12;99702.38;6012515;23;20091;-80
2022/02/21 05:32:30;;;;;;;24.23;3.03;;;;;;;4.74;67.23;99694.03;5986953;23;20079;-80
2022/02/21 05:34:55;;;;;;;23.67;3.25;;;;;;;4.72;67.41;99709.38;5988572;23;20023;-79
2022/02/21 05:37:21;;;;;;;38.17;2.95;;;;;;;4.71;67.80;99646.41;6014910;23;20079;-80
2022/02/21 05:39:47;;;;;;;20.63;4.40;;;;;;;4.70;67.01;99716.72;6019112;23;20008;-78
2022/02/21 05:42:13;;;;;;;41.42;3.53;;;;;;;4.72;68.03;99680.88;5993872;23;20043;-78
2022/02/21 05:44:38;;;;;;;31.85;3.25;;;;;;;4.69;69.33;99696.41;6012711;23;20079;-77
2022/02/21 05:47:04;;;;;;;30.27;3.75;;;;;;;4.66;69.64;99699.38;6013711;23;20003;-79
2022/02/21 05:49:29;;;;;;;36.75;3.70;;;;;;;4.57;69.11;99695.91;6016283;23;20363;-79
2022/02/21 05:51:55;;;;;;;35.58;4.05;;;;;;;4.59;68.63;99684.09;5994601;23;20315;-77
2022/02/21 05:54:20;;;;;;;34.33;3.92;;;;;;;4.60;68.41;99683.06;6021089;23;20007;-76
2022/02/21 05:56:45;;;;;;;27.55;3.85;;;;;;;4.64;69.19;99669.44;6020934;23;20444;-77
2022/02/21 05:59:11;;;;;;;36.90;3.47;;;;;;;4.62;69.68;99675.75;6020073;23;20034;-77
2022/02/21 06:01:36;;;;;;;31.40;3.78;;;;;;;4.65;70.36;99684.41;5993731;23;20011;-77
2022/02/21 06:04:01;;;;;;;35.08;3.40;;;;;;;4.59;70.82;99677.94;6015810;23;20067;-76
2022/02/21 06:06:27;;;;;;;34.45;3.70;;;;;;;4.54;70.74;99674.94;6016257;23;20010;-77
2022/02/21 06:08:52;;;;;;;34.13;3.20;;;;;;;4.54;70.09;99675.78;6018040;23;20079;-78
2022/02/21 06:11:17;;;;;;;32.63;3.15;;;;;;;4.53;70.22;99674.13;6018030;23;20035;-78
2022/02/21 06:13:43;;;;;;;45.70;5.28;;;;;;;4.52;70.52;99683.09;6017395;23;20004;-78
2022/02/21 06:16:08;;;;;;;30.58;3.28;;;;;;;4.55;70.23;99682.75;6017212;23;20040;-78
2022/02/21 06:18:35;;;;;;;33.83;2.88;;;;;;;4.54;71.11;99697.09;6014155;23;20067;-77
2022/02/21 06:21:00;;;;;;;31.52;4.40;;;;;;;4.52;70.58;99687.59;6014895;23;20011;-78
2022/02/21 06:23:25;;;;;;;33.05;3.80;;;;;;;4.51;70.19;99684.13;6015293;23;20031;-79
2022/02/21 06:25:51;;;;;;;27.08;3.55;;;;;;;4.54;70.84;99669.63;5990064;23;20015;-78
2022/02/21 06:28:16;;;;;;;29.70;3.20;;;;;;;4.52;70.56;99661.78;6013697;23;20063;-78
2022/02/21 06:30:41;;;;;;;34.38;4.10;;;;;;;4.53;70.86;99671.47;5990290;23;20014;-77
2022/02/21 06:33:07;;;;;;;25.38;3.72;;;;;;;4.58;70.48;99677.13;6017514;23;20094;-77
2022/02/21 06:35:32;;;;;;;27.55;3.03;;;;;;;4.64;70.49;99664.94;6017907;23;20015;-78
2022/02/21 06:37:59;;;;;;;29.48;3.20;;;;;;;4.69;69.87;99669.75;6017963;23;20036;-78
2022/02/21 06:40:26;;;;;;;39.28;5.18;;;;;;;4.78;70.47;99666.03;6016639;23;20058;-78
2022/02/21 06:42:52;;;;;;;26.33;3.92;;;;;;;4.80;70.90;99670.19;6017385;23;20031;-77
2022/02/21 06:45:18;;;;;;;27.88;4.07;;;;;;;4.79;70.44;99668.53;6019039;23;20008;-80
2022/02/21 06:47:44;;;;;;;27.60;4.07;;;;;;;4.78;71.06;99660.69;6020044;23;20060;-77
2022/02/21 06:50:10;;;;;;;39.88;4.40;;;;;;;4.84;70.88;99638.66;6017516;23;20003;-80
2022/02/21 06:52:35;;;;;;;43.97;4.70;;;;;;;4.86;70.92;99651.84;6023013;23;20004;-80
2022/02/21 06:55:02;;;;;;;34.63;4.35;;;;;;;4.90;69.81;99664.66;6016384;23;20022;-79
2022/02/21 06:57:27;;;;;;;34.75;4.13;;;;;;;4.93;69.55;99648.31;5971988;23;20067;-77
2022/02/21 06:59:53;;;;;;;27.63;3.35;;;;;;;4.93;69.85;99648.31;6003692;23;20012;-78
2022/02/21 07:02:18;;;;;;;37.17;4.03;;;;;;;4.94;70.08;99644.63;6019550;23;20019;-79
2022/02/21 07:04:44;;;;;;;27.83;3.03;;;;;;;4.99;70.09;99655.59;6015882;23;20014;-79
2022/02/21 07:07:09;;;;;;;28.50;3.60;;;;;;;5.02;69.77;99638.41;5989308;23;20008;-79
2022/02/21 07:09:34;;;;;;;40.13;4.05;;;;;;;5.06;70.32;99632.56;6015386;23;20004;-80
2022/02/21 07:12:00;;;;;;;27.90;3.50;;;;;;;5.16;68.60;99610.16;6013236;23;20062;-78
2022/02/21 07:14:25;;;;;;;30.20;4.00;;;;;;;5.21;68.59;99645.13;5988380;23;20422;-77
2022/02/21 07:16:52;;;;;;;31.17;3.90;;;;;;;5.31;68.91;99629.72;6011729;23;20015;-77
2022/02/21 07:19:17;;;;;;;41.60;7.18;;;;;;;5.42;67.14;99610.63;6014067;23;20052;-78
2022/02/21 07:21:42;;;;;;;37.25;3.78;;;;;;;5.59;67.58;99627.34;6014227;23;20442;-78
2022/02/21 07:24:09;;;;;;;31.77;3.35;;;;;;;5.70;66.81;99612.75;5991464;23;20095;-77
2022/02/21 07:26:34;;;;;;;31.85;3.58;;;;;;;5.74;67.21;99608.72;5990256;23;20004;-80
2022/02/21 07:29:00;;;;;;;31.30;3.30;;;;;;;5.70;67.29;99613.56;6011001;23;20036;-79
2022/02/21 07:31:25;;;;;;;31.30;3.53;;;;;;;5.63;67.65;99617.13;6012644;23;20030;-79
2022/02/21 07:36:19;;;;;;;35.95;4.30;;;;;;;5.53;68.71;99622.75;5053709;28;20402;-51
2022/02/21 07:38:44;;;;;;;33.88;3.63;;;;;;;5.52;69.04;99610.38;5054340;28;20490;-53
2022/02/21 07:41:10;;;;;;;35.42;4.28;;;;;;;5.50;69.47;99591.03;5053098;28;20037;-54
2022/02/21 07:43:35;;;;;;;31.05;3.70;;;;;;;5.54;70.29;99619.06;5049692;28;20411;-53
2022/02/21 07:46:00;;;;;;;31.98;4.65;;;;;;;5.50;71.61;99583.91;5064026;28;20033;-49
2022/02/21 07:48:26;;;;;;;36.10;4.20;;;;;;;5.50;73.12;99591.91;5062884;28;20439;-51
2022/02/21 07:50:54;;;;;;;48.58;5.13;;;;;;;5.43;73.64;99569.59;5047853;28;20621;-50
2022/02/21 07:53:20;;;;;;;37.40;4.45;;;;;;;5.34;75.24;99568.00;5049936;28;20036;-52
2022/02/21 07:55:46;;;;;;;40.90;4.22;;;;;;;5.26;75.82;99568.06;5059141;28;20033;-49
2022/02/21 07:58:12;;;;;;;45.10;4.43;;;;;;;5.21;76.28;99570.44;5060104;28;20032;-49
2022/02/21 08:00:38;;;;;;;43.65;4.85;;;;;;;5.16;77.80;99559.47;5054831;28;20029;-49
2022/02/21 08:03:03;;;;;;;44.47;4.80;;;;;;;5.09;77.83;99545.22;5048701;28;20040;-51
2022/02/21 08:05:28;;;;;;;38.42;4.57;;;;;;;5.05;79.02;99574.06;5050138;28;20535;-51
2022/02/21 08:07:54;;;;;;;48.00;4.70;;;;;;;4.98;79.68;99539.28;5049499;28;20033;-51
2022/02/21 08:10:19;;;;;;;40.92;4.80;;;;;;;4.95;79.98;99541.47;5051087;28;20102;-50
2022/02/21 08:12:44;;;;;;;51.30;6.43;;;;;;;4.89;80.59;99523.50;5060917;28;20051;-51
2022/02/21 08:15:10;;;;;;;40.85;5.22;;;;;;;4.88;80.93;99514.69;5068211;28;20029;-49
2022/02/21 08:17:43;;;;;;;38.83;3.92;;;;;;;4.89;80.96;99508.34;5059069;28;20035;-50
2022/02/21 08:20:09;;;;;;;47.20;5.38;;;;;;;4.89;81.52;99516.34;5062941;28;20045;-54
2022/02/21 08:22:35;;;;;;;35.35;4.00;;;;;;;4.87;82.52;99515.72;5049285;28;20041;-53
2022/02/21 08:25:00;;;;;;;52.60;6.60;;;;;;;4.88;82.55;99496.03;5050221;28;20033;-53
2022/02/21 08:27:26;;;;;;;32.30;3.50;;;;;;;4.93;81.35;99499.00;5051657;28;20033;-52
2022/02/21 08:29:51;;;;;;;39.10;6.43;;;;;;;4.99;81.19;99492.94;5057631;28;20107;-52
2022/02/21 08:32:18;;;;;;;43.05;5.13;;;;;;;5.07;80.73;99495.53;5054968;28;20116;-54
2022/02/21 08:34:43;;;;;;;64.72;8.82;;;;;;;5.12;81.10;99512.84;5051796;28;20060;-52
2022/02/21 08:37:08;;;;;;;57.15;6.72;;;;;;;5.21;80.19;99490.41;5060421;28;20036;-54
2022/02/21 08:39:34;;;;;;;45.45;5.43;;;;;;;5.26;80.33;99466.69;5063030;28;20167;-52
2022/02/21 08:41:59;;;;;;;45.65;5.30;;;;;;;5.34;78.47;99485.28;5048389;28;20357;-53
2022/02/21 08:44:25;;;;;;;54.75;5.43;;;;;;;5.38;78.93;99462.59;5052226;28;20490;-51
2022/02/21 08:46:51;;;;;;;44.72;4.75;;;;;;;5.48;77.40;99465.81;5044791;28;20049;-53
2022/02/21 08:49:16;;;;;;;48.22;4.97;;;;;;;5.55;77.21;99494.44;5036092;28;20032;-53
2022/02/21 08:51:42;;;;;;;52.33;5.47;;;;;;;5.59;77.39;99477.06;5034959;28;20068;-54
2022/02/21 08:54:09;;;;;;;37.70;4.90;;;;;;;5.61;77.07;99477.69;5048749;28;20539;-55
2022/02/21 08:56:35;;;;;;;36.90;5.18;;;;;;;5.66;76.72;99493.97;5036254;28;20156;-52
2022/02/21 08:59:01;;;;;;;47.95;5.97;;;;;;;5.67;77.65;99456.44;5034418;28;20143;-51
2022/02/21 09:01:26;;;;;;;51.28;5.35;;;;;;;5.68;77.03;99479.44;5033398;28;20056;-54
2022/02/21 09:03:51;;;;;;;58.05;5.70;;;;;;;5.74;77.03;99427.19;5026755;28;20026;-54
2022/02/21 09:06:17;;;;;;;52.15;5.30;;;;;;;5.70;78.08;99468.59;5017590;28;20037;-54
2022/02/21 09:08:42;;;;;;;61.38;5.97;;;;;;;5.69;78.21;99475.78;5051113;28;20025;-53
2022/02/21 09:11:07;;;;;;;50.40;5.82;;;;;;;5.72;78.10;99455.91;5040922;28;20442;-52
2022/02/21 09:13:33;;;;;;;54.25;6.28;;;;;;;5.76;78.51;99454.50;5031805;28;20033;-51
2022/02/21 09:15:58;;;;;;;49.17;6.65;;;;;;;5.77;78.70;99447.34;5034052;28;20464;-50
2022/02/21 09:18:23;;;;;;;49.15;5.07;;;;;;;5.71;80.60;99486.25;5032176;28;20495;-55
2022/02/21 09:20:50;;;;;;;47.25;5.15;;;;;;;5.57;82.08;99441.72;5037053;28;20380;-51
2022/02/21 09:23:15;;;;;;;59.70;7.13;;;;;;;5.45;83.59;99444.00;5050930;28;20071;-53
2022/02/21 09:25:40;;;;;;;52.72;6.57;;;;;;;5.40;84.47;99441.91;5040460;28;20037;-52
2022/02/21 09:28:06;;;;;;;57.30;6.05;;;;;;;5.35;84.55;99438.13;5021152;28;20029;-49
2022/02/21 09:30:31;;;;;;;54.30;6.82;;;;;;;5.36;85.30;99456.59;5014519;28;20531;-51
2022/02/21 09:32:56;;;;;;;50.95;5.88;;;;;;;5.38;85.95;99457.25;5020682;28;20431;-52
2022/02/21 09:35:23;;;;;;;59.13;6.60;;;;;;;5.35;86.34;99436.28;5034413;28;20089;-52
2022/02/21 09:37:49;;;;;;;51.88;6.03;;;;;;;5.38;84.85;99461.78;5023491;28;20084;-50
2022/02/21 09:40:14;;;;;;;53.80;5.35;;;;;;;5.46;84.18;99437.66;5041847;28;20684;-50
2022/02/21 09:42:42;;;;;;;58.97;5.93;;;;;;;5.44;84.85;99445.84;5034301;28;20049;-51
2022/02/21 09:45:08;;;;;;;53.38;6.45;;;;;;;5.46;84.28;99424.31;5039145;28;20041;-52
2022/02/21 09:47:34;;;;;;;44.70;6.20;;;;;;;5.54;83.41;99436.75;5052345;28;20669;-51
2022/02/21 09:49:59;;;;;;;53.35;5.82;;;;;;;5.64;82.49;99411.44;5037922;28;20033;-51
2022/02/21 09:52:26;;;;;;;38.67;5.28;;;;;;;5.71;81.82;99412.38;5044665;28;20471;-52
2022/02/21 09:54:51;;;;;;;60.60;6.55;;;;;;;5.82;81.04;99424.41;5044989;28;20029;-51
2022/02/21 09:57:17;;;;;;;47.50;5.60;;;;;;;5.87;81.63;99411.34;5033526;28;20034;-51
2022/02/21 09:59:42;;;;;;;47.60;5.63;;;;;;;5.92;81.74;99429.44;5037442;28;20079;-49
2022/02/21 10:02:14;;;;;;;61.40;7.18;;;;;;;5.97;81.77;99404.88;5052767;28;20527;-51
2022/02/21 10:04:39;;;;;;;63.92;6.97;;;;;;;6.00;82.65;99409.84;5052249;28;20039;-54
2022/02/21 10:07:05;;;;;;;53.33;6.22;;;;;;;6.02;83.70;99405.16;5053757;28;20361;-51
2022/02/21 10:09:30;;;;;;;49.42;5.90;;;;;;;5.90;84.16;99413.63;5042439;28;20535;-51
2022/02/21 10:11:58;;;;;;;52.72;5.45;;;;;;;5.85;84.94;99381.31;5046316;28;20499;-54
2022/02/21 10:14:28;;;;;;;60.72;5.95;;;;;;;5.88;85.37;99415.66;5033467;28;20021;-53
2022/02/21 10:16:58;;;;;;;55.67;6.40;;;;;;;5.89;86.20;99405.78;5037430;28;20037;-50
2022/02/21 10:19:30;;;;;;;51.58;6.03;;;;;;;5.92;86.31;99435.63;5041034;28;20128;-49
2022/02/21 10:22:01;;;;;;;48.88;5.32;;;;;;;5.94;86.13;99406.09;5037837;28;20048;-49
2022/02/21 10:24:49;;;;;;;53.60;5.43;;;;;;;5.97;86.13;99426.25;5032973;28;20025;-50
2022/02/21 10:27:17;;;;;;;50.63;4.88;;;;;;;6.02;85.72;99439.88;5037410;28;20468;-49
2022/02/21 10:29:53;;;;;;;49.97;4.90;;;;;;;6.05;86.40;99428.81;5042654;28;20048;-51
2022/02/21 10:32:30;;;;;;;49.42;5.65;;;;;;;6.09;85.68;99419.41;5032718;28;20094;-50
2022/02/21 10:35:09;;;;;;;45.92;6.53;;;;;;;6.13;86.55;99426.03;5043033;28;20157;-49
2022/02/21 10:37:44;;;;;;;57.05;6.28;;;;;;;6.14;86.74;99438.38;5038801;28;20038;-51
2022/02/21 10:40:15;;;;;;;55.03;6.50;;;;;;;6.15;87.89;99440.03;5034617;28;20033;-51
2022/02/21 10:42:41;;;;;;;50.78;5.40;;;;;;;6.15;88.36;99456.06;5044112;28;20499;-51
2022/02/21 10:45:16;;;;;;;53.88;6.25;;;;;;;6.14;89.16;99433.03;5038899;28;20551;-50
2022/02/21 10:48:01;;;;;;;63.50;6.43;;;;;;;6.14;89.14;99447.22;5033626;28;20017;-50
2022/02/21 10:50:28;;;;;;;55.33;5.72;;;;;;;6.22;88.11;99440.94;5032634;28;20030;-52
2022/02/21 10:52:53;;;;;;;46.83;6.60;;;;;;;6.24;88.54;99443.41;5039310;28;20116;-50
2022/02/21 10:55:18;;;;;;;43.35;4.72;;;;;;;6.33;87.47;99437.78;5043642;28;20029;-51
2022/02/21 10:57:45;;;;;;;59.53;6.43;;;;;;;6.41;87.26;99462.72;5051063;28;20121;-50
2022/02/21 11:00:12;;;;;;;52.70;5.70;;;;;;;6.45;87.38;99455.97;5044323;28;20056;-50
2022/02/21 11:02:40;;;;;;;54.80;6.35;;;;;;;6.50;86.81;99458.91;5034640;28;20034;-50
2022/02/21 11:05:09;;;;;;;66.82;6.20;;;;;;;6.53;87.16;99454.03;5033006;28;20112;-51
2022/02/21 11:07:35;;;;;;;50.92;5.97;;;;;;;6.59;86.78;99436.41;5039190;28;20041;-50
2022/02/21 11:10:03;;;;;;;46.42;5.40;;;;;;;6.67;86.17;99476.38;5047322;28;20024;-52
2022/02/21 11:12:35;;;;;;;44.60;7.40;;;;;;;6.79;87.18;99469.50;5037953;28;20037;-50
2022/02/21 11:15:02;;;;;;;57.90;6.07;;;;;;;6.77;87.40;99474.22;5040518;28;20029;-50
2022/02/21 11:17:28;;;;;;;47.55;6.75;;;;;;;6.78;87.20;99473.19;5036215;28;20131;-49
2022/02/21 11:19:54;;;;;;;52.55;5.78;;;;;;;6.80;87.08;99491.72;5032579;28;20087;-50
2022/02/21 11:22:19;;;;;;;55.40;6.65;;;;;;;6.84;86.97;99450.19;5032541;28;20025;-50
2022/02/21 11:25:08;;;;;;;45.47;5.43;;;;;;;6.87;86.83;99497.13;5031508;28;20033;-50
2022/02/21 11:27:54;;;;;;;47.10;5.47;;;;;;;6.93;86.16;99496.38;5022034;28;20038;-51
2022/02/21 11:30:27;;;;;;;47.53;5.78;;;;;;;7.02;85.97;99489.88;5041926;28;20036;-51
2022/02/21 11:33:10;;;;;;;45.42;5.50;;;;;;;7.14;85.08;99493.69;5031950;28;20087;-50